航空気象通報

ウインドサーファーのための航空気象通報による風予報です。

2/29-3/1の航空気象通報(国内、海外)

2012年02月29日 23時06分50秒 | TAF

羽田空港
TAF RJTT 290837Z 2909/0112 01018KT 9999 FEW008 BKN012
      BECMG 0106/0109 08010KT
日本時間29日18時-1日15時:010度から18ノットの風
15-18時:風が変化
18-21時:080度から10ノットの風

静岡空港
TAF RJNS 290841Z 2909/0112 06008KT 9999 FEW020
      BECMG 2912/2914 32006KT
      BECMG 0100/0103 18004KT
日本時間29日18-21時:060度から8ノットの風
21-23時:風が変化
23時-1日09時:320度から6ノットの風
09-12時:風が変化
12-21時:180度から4ノットの風

福岡空港
TAF RJFF 290842Z 2909/0112 03006KT 9999 FEW025
      BECMG 2911/2913 13004KT
日本時間29日18-20時:030度から6ノットの風
20-22時:風が変化
22時-1日21時:130度から6ノットの風

那覇空港
TAF ROAH 290845Z 2909/0112 02006KT 9999 FEW020
日本時間29日18時-1日21時:020度から6ノットの風

マウイのカフルイ空港
TAF PHOG 291130Z 2912/0112 10008KT P6SM SCT050
     FM291900 07015G25KT P6SM FEW035 SCT050
     FM010500 06008KT P6SM SCT050
      AMD LTD TO WX VIS AND WIND TIL 291600
ハワイ時間29日02-09時:100度から8ノットの風
09-19時:070度から15ノット、突風25ノット
19時-1日02時:060度から8ノットの風

サイパン空港
TAF PGSN 291120Z 2912/0112 06016G24KT P6SM VCSH SCT029
     FM292200 07015G25KT P6SM VCSH SCT020 SCT040
マリアナ時間29日22時-1日08時:060度から16ノット、突風24ノット
08-22時:070度から15ノット、突風25ノット

コメント

2/28-2/29の航空気象通報(国内、海外)

2012年02月29日 00時05分31秒 | TAF

羽田空港
TAF RJTT 280843Z 2809/2912 08010KT 9999 FEW030 BKN050
      BECMG 2812/2814 05010KT
      TEMPO 2821/2903 36018G28KT 1500 SN FEW003 BKN005
      TEMPO 2903/2906 36020G30KT 3000 -RASN FEW003 BKN008
      TEMPO 2906/2909 36020G30KT
日本時間28日18-21時:080度から10ノットの風
21-23時:風が変化
23時-29日21時:050度から10ノットの風
但し、29日06-12時の間:ときどき360度から18ノット、突風28ノット
但し、29日12-18時の間:ときどき360度から20ノット、突風30ノット

但し、29日06-12時の間:ときどき
但し、29日12-15時の間:ときどき

静岡空港
TAF RJNS 280841Z 2809/2912 05004KT 9999 FEW020 BKN050
      BECMG 2818/2821 4000 -RA BR
      TEMPO 2818/2824 3000 -RA BR FEW004 BKN007
      BECMG 2900/2903 8000 NSW
日本時間28日18時-29日21時:050度から4ノットの風
、29日03-06時の後、
29日09-12時の後、

福岡空港
TAF AMD RJFF 281227Z 2812/2912 05007KT 4000 SNRA FEW005 SCT015 BKN025
      TEMPO 2812/2818 0800 SN FEW003 BKN008 BKN015
      BECMG 2818/2821 9000 NSW
日本時間28日21時-29日21時:050度から7ノットの風

但し、28日21時-29日03時の間:ときどき
29日03-06時の後、

那覇空港
TAF AMD ROAH 281054Z 2810/2912 35015KT 9999 FEW015 BKN040
日本時間28日18時-29日21時:350度から15ノットの風

(番外編)石垣空港
TAF ROIG 281442Z 2815/2918 02009KT 9999 FEW020 BKN045
日本時間28日18時-29日21時:020度から9ノットの風

マウイのカフルイ空港
TAF PHOG 281131Z 2812/2912 10006KT P6SM FEW045
     FM282000 06017G28KT P6SM FEW035 SCT060
     FM290600 10008KT P6SM SCT050
      AMD LTD TO WX VIS AND WIND TIL 281600
ハワイ時間28日02-10時:100度から6ノットの風
10-20時:060度から17ノット、突風28ノット
20時-29日02時:100度から8ノットの風

サイパン空港
TAF PGSN 281124Z 2812/2912 07016G26KT P6SM VCSH SCT018
     FM290100 08018G28KT P6SM VCSH SCT025
     FM290900 07015G25KT P6SM VCSH SCT018
マリアナ時間28日22時-29日11時:070度から16ノット、突風26ノット
11-19時:080度から18ノット、突風28ノット
19-22時:070度から15ノット、突風25ノット

コメント

2/27-2/28の航空気象通報(国内、海外)

2012年02月27日 23時48分43秒 | TAF

羽田空港
TAF RJTT 270843Z 2709/2812 34018KT 9999 FEW030 BKN060
      TEMPO 2709/2713 34022G32KT
      BECMG 2718/2721 04012KT
      BECMG 2803/2806 08010KT
日本時間27日18時-28日03時:340度から18ノットの風
但し、27日18-22時の間:ときどき340度から22ノット、突風32ノット
28日03-06時:風が変化
06-12時:040度から12ノットの風
12-15時:風が変化
15-21時:080度から10ノットの風

静岡空港
TAF RJNS 270841Z 2709/2812 28014KT 9999 FEW030 SCT050
      BECMG 2711/2713 34004KT
      BECMG 2721/2724 05006KT
日本時間27日18-20時:280度から14ノットの風
20-22時:風が変化
22時-27日06時:340度から4ノットの風
06-09時:風が変化
09-21時:050度から6ノットの風

福岡空港
TAF RJFF 270843Z 2709/2812 05005KT 9999 FEW025 SCT035
      BECMG 2714/2716 10003KT
日本時間27日18-23時:050度から5ノットの風
23時-28日01時:風が変化
01-21時:100度から3ノットの風

那覇空港
TAF ROAH 270841Z 2709/2812 08008KT 9999 FEW015 BKN040
      BECMG 2718/2721 12006KT
      BECMG 2806/2809 29013KT
      TEMPO 2806/2809 3000 +SHRA FEW008 FEW015CB BKN020
日本時間27日18時-28日03時:080度から8ノットの風
03-06時:風が変化
06-15時:120度から6ノットの風
15-18時:風が変化
18-21時:290度から13ノットの風

但し、15-18時の間:ときどき

(番外編)石垣空港
TAF ROIG 270843Z 2709/2812 05008KT 9999 FEW015 BKN045
日本時間27日18時-28日21時:050度から8ノットの風

マウイのカフルイ空港
TAF PHOG 271130Z 2712/2812 10004KT P6SM SCT060
     FM272000 06017G28KT P6SM FEW030 SCT060
     FM280500 08010G15KT P6SM FEW035
     FM280900 10005KT P6SM FEW060
      AMD LTD TO WX VIS AND WIND TIL 271600
ハワイ時間27日02-10時:100度から4ノットの風
10-19時:060度から17ノット、突風28ノット
19-23時:080度から10ノット、突風15ノット
23時-28日02時:100度から5ノットの風

サイパン空港
TAF PGSN 271122Z 2712/2812 06013KT P6SM VCSH SCT015 SCT050
     FM272300 07016G24KT P6SM VCSH SCT020
     FM280900 07013KT P6SM VCSH SCT018
マリアナ時間27日22時-28日09時:060度から13ノットの風
09-19時:070度から16ノット、突風24ノット
19-22時:070度から13ノットの風

コメント

2/26-2/27の航空気象通報(国内、海外)

2012年02月26日 23時31分32秒 | TAF

羽田空港
TAF RJTT 260840Z 2609/2712 35016KT 9999 FEW030 BKN050
日本時間26日18時-27日06時:350度から16ノットの風

静岡空港
TAF RJNS 260840Z 2609/2712 27010KT 9999 FEW020 BKN030
      BECMG 2612/2614 01004KT
      BECMG 2703/2706 27016KT
      TEMPO 2706/2709 27018G28KT
日本時間26日18-21時:270度から10ノットの風
21-23時:風が変化
23時-27日12時:010度から4ノットの風
12-15時:風が変化
15-21時:270度から16ノットの風
但し、15-21時の間:ときどき270度から18ノット、突風28ノット

福岡空港
TAF RJFF 260848Z 2609/2712 33005KT 9999 FEW030 BKN035
      BECMG 2611/2613 10005KT
      BECMG 2700/2703 34005KT
日本時間26日18-20時:330度から5ノットの風
20-22時:風が変化
22時-27日09時:100度から5ノットの風
09-12時:風が変化
12-21時:340度から5ノットの風

那覇空港
TAF ROAH 260842Z 2609/2712 36018KT 9999 SCT020 BKN045
日本時間26日18時-27日21時:360度から18ノットの風

(番外編)石垣空港
TAF ROIG 260844Z 2609/2712 02012KT 9999 FEW020 BKN040
日本時間26日18時-27日21時:020度から12ノットの風

マウイのカフルイ空港
TAF PHOG 261120Z 2612/2712 15005KT P6SM FEW035 BKN250
     FM262000 06014G22KT P6SM FEW035 SCT050
     FM270500 06010G16KT P6SM FEW035 SCT050
     FM270800 05009KT P6SM FEW035 SCT050
      AMD LTD TO WX VIS AND WIND TIL 261600
ハワイ時間26日02-10時:150度から5ノットの風

10-19時:060度から14ノット、突風22ノット
19-22時:060度から10ノット、突風16ノット
22時-27日02時:050度から9ノットの風

サイパン空港
TAF PGSN 261124Z 2612/2712 08009KT P6SM VCSH SCT015 SCT050
     FM270100 08013KT P6SM SCT025
     FM270900 07009KT P6SM VCSH SCT018
マリアナ時間26日22時-27日11時:080度から9ノットの風
11-19時:080度から13ノットの風
19-22時:070度から9ノットの風

コメント

2/25-2/26の航空気象通報(国内、海外)

2012年02月25日 21時48分17秒 | TAF

羽田空港
TAF RJTT 250838Z 2509/2612 01012KT 9999 FEW015 BKN020
日本時間25日18時-26日06時:010度から12ノットの風

静岡空港
TAF RJNS 250842Z 2509/2612 26014KT 9999 SCT030 BKN050
      BECMG 2514/2516 36008KT
      BECMG 2606/2609 26010KT
日本時間25日18-23時:260度から14ノットの風
23時-26日15時:360度から8ノットの風
15-18時:風が変化
18-21時:260度から10ノットの風

福岡空港
TAF RJFF 250845Z 2509/2612 01006KT 9999 FEW015 BKN025
      TEMPO 2509/2512 4500 -SHRA BR
日本時間25日18時-25日21時:010度から6ノットの風

但し、25日18-21時の間:ときどき

那覇空港
TAF ROAH 250844Z 2509/2612 01015KT 8000 -RA FEW008 SCT015 BKN030
      TEMPO 2510/2513 4000 RA
日本時間25日18時-26日21時:010度から15ノットの風

(番外編)石垣空港
TAF ROIG 250848Z 2509/2612 01014KT 9999 SCT015 BKN040
日本時間25日18時-26日21時:010度から14ノットの風

マウイのカフルイ空港
TAF PHOG 251120Z 2512/2612 12006KT P6SM SCT050 BKN200
     FM252200 04012KT P6SM SCT035 BKN200
     FM260300 30006KT P6SM SCT030 BKN200
     FM260800 12006KT P6SM SCT050 BKN200
      AMD LTD TO WX VIS AND WIND TIL 251600
ハワイ時間25日02-12時:120度から6ノットの風
12-17時:040度から12ノットの風
17時-26日02時:120度から6ノットの風

サイパン空港
TAF PGSN 251120Z 2512/2612 06009KT P6SM VCSH SCT018
     FM252300 08013KT P6SM VCSH SCT020 SCT050
     FM260900 07009KT P6SM VCSH SCT018
マリアナ時間25日22時-26日09時:060度から9ノットの風
09-19時:080度から13ノットの風
19-22時:070度から9ノットの風

コメント